Portada
METAR-TAF:

METAR-TAF

Aeropuertos :

Aeropuerto de Gibraltar

Gibraltar, Gibraltar

latitud: 36-09N, longitud: 005-21W, altitud: 5 m

Observación

El informe se hizo hace 35 minutos, a las 19:20 UTC
Viento 8 kt del este-noreste
Temperatura 18°C
Humedad 68%
Presión 1023 hPa
Visibilidad 10 km o más

METAR: LXGB 141920Z AUTO 06008KT 9999 NCD 18/12 Q1023

Hora: 21:55 (19:55 UTC)

Pronóstico

El informe se hizo hace 6 horas y 37 minutos, a las 13:18 UTC
Pronóstico válido del 14 a las 15 UTC al 14 a las 22 UTC
Viento 12 kt del este
Visibilidad 10 km o más
sin nubes por debajo de 1500 m y sin presencia de cumulonimbus.

TAF: LXGB 141318Z 1415/1422 08012KT CAVOK

Observaciones y pronósticos meteorológicos de más de 4000 aeropuertos (mensajes METAR y TAF).

Los puntos amarillos y rojos representan las estaciones disponibles.

Ponga el ratón en el punto deseado para ver el nombre de la estación.

Haga clic para ver las observaciones y los pronósticos meteorológicos.

Para cambiar el mapa : haga clic en los botones verdes con una cruz de color negro para hacer un zoom, en el botón verde con un guión para alejar o en las flechas verdes para mapas adyacentes.


METAR-TAF: